Time;durP1;ratioP1;P1;durP2;ratioP2;P2;SDS_P1;SDS_P2;PMS_P1;PMS_P2;Temp;Humidity;BMP_temperature;BMP_pressure;BME280_temperature;BME280_humidity;BME280_pressure;Samples;Min_cycle;Max_cycle;Signal;HPM_P1;HPM_P2
2021/04/25 00:01:16;;;;;;;5.00;3.47;;;10.40;47.60;;;11.05;39.40;98041.97;4948168;29;20058;-64
2021/04/25 00:03:43;;;;;;;6.30;3.50;;;10.40;47.80;;;10.97;39.64;98045.38;4948430;29;20059;-65
2021/04/25 00:06:11;;;;;;;6.50;4.47;;;10.30;48.70;;;10.93;39.46;98044.00;4947461;29;20074;-64
2021/04/25 00:08:39;;;;;;;7.77;3.80;;;10.30;48.10;;;10.96;39.63;98048.19;4948629;29;20754;-64
2021/04/25 00:11:06;;;;;;;5.20;3.73;;;10.30;47.70;;;10.94;39.81;98044.84;4947711;29;20053;-64
2021/04/25 00:13:34;;;;;;;7.47;4.10;;;10.30;48.20;;;10.85;39.83;98046.59;4948351;29;20047;-64
2021/04/25 00:16:01;;;;;;;6.37;3.30;;;10.20;48.50;;;10.79;40.03;98045.38;4948223;29;20063;-64
2021/04/25 00:18:29;;;;;;;8.23;4.03;;;10.10;48.50;;;10.74;40.22;98047.69;4948260;29;20356;-64
2021/04/25 00:20:57;;;;;;;6.03;3.60;;;10.00;48.80;;;10.72;40.25;98044.34;4947154;29;20039;-64
2021/04/25 00:23:24;;;;;;;5.63;3.63;;;10.00;49.80;;;10.64;40.25;98039.78;4947051;29;20047;-64
2021/04/25 00:25:52;;;;;;;6.13;3.77;;;9.90;49.10;;;10.62;40.26;98038.22;4946900;29;20055;-64
2021/04/25 00:28:19;;;;;;;7.57;3.20;;;9.90;49.20;;;10.58;40.54;98042.19;4946335;29;20049;-64
2021/04/25 00:30:46;;;;;;;6.93;3.47;;;9.90;49.40;;;10.61;40.27;98047.22;4945793;29;20043;-63
2021/04/25 00:33:14;;;;;;;9.63;3.63;;;10.00;48.90;;;10.57;40.53;98043.19;4946324;29;20043;-64
2021/04/25 00:35:41;;;;;;;7.70;3.67;;;9.90;49.30;;;10.56;40.54;98042.34;4947450;29;20139;-64
2021/04/25 00:38:09;;;;;;;6.40;3.37;;;9.90;48.90;;;10.59;40.26;98035.88;4947338;29;20365;-64
2021/04/25 00:40:37;;;;;;;6.53;3.53;;;10.00;48.60;;;10.62;40.30;98024.91;4945892;29;20344;-63
2021/04/25 00:43:04;;;;;;;7.47;3.63;;;10.00;48.80;;;10.58;40.80;98024.38;4946260;29;20353;-64
2021/04/25 00:45:32;;;;;;;5.97;3.67;;;10.00;48.90;;;10.53;40.83;98024.03;4947346;29;20077;-63
2021/04/25 00:47:59;;;;;;;5.83;3.17;;;9.90;49.60;;;10.50;40.66;98016.31;4947140;29;20066;-63
2021/04/25 00:50:27;;;;;;;5.97;3.60;;;9.80;50.20;;;10.44;40.80;98023.09;4931361;29;20462;-64
2021/04/25 00:52:58;;;;;;;5.30;3.47;;;9.80;49.70;;;10.43;40.68;98018.75;4945339;29;20047;-64
2021/04/25 00:55:29;;;;;;;8.27;3.40;;;9.80;49.30;;;10.38;41.10;98018.38;4946606;29;20047;-64
2021/04/25 00:57:58;;;;;;;7.80;3.83;;;9.70;50.00;;;10.36;41.07;98019.53;4948202;28;20051;-63
2021/04/25 01:00:26;;;;;;;5.57;3.60;;;9.70;49.90;;;10.32;40.99;98018.16;4935288;29;20249;-64
2021/04/25 01:03:01;;;;;;;7.20;3.40;;;9.70;49.70;;;10.31;41.33;98019.13;4951313;29;20047;-63
2021/04/25 01:05:28;;;;;;;4.90;3.23;;;9.70;49.80;;;10.33;40.98;98019.81;4950214;29;20062;-63
2021/04/25 01:07:56;;;;;;;6.30;3.77;;;9.70;49.50;;;10.31;41.08;98019.94;4933571;29;20225;-64
2021/04/25 01:10:24;;;;;;;6.33;3.73;;;9.70;49.70;;;10.32;40.99;98015.50;4951964;29;20059;-63
2021/04/25 01:12:52;;;;;;;6.90;3.67;;;9.70;49.50;;;10.30;40.94;98018.28;4932881;29;20352;-64
2021/04/25 01:15:22;;;;;;;6.17;3.10;;;9.70;49.80;;;10.26;41.30;98027.53;4951148;29;20063;-64
2021/04/25 01:17:50;;;;;;;5.20;3.63;;;9.60;49.90;;;10.27;40.98;98020.38;4950112;29;20046;-64
2021/04/25 01:20:21;;;;;;;4.63;3.37;;;9.60;49.70;;;10.29;41.14;98024.56;4918972;29;20065;-63
2021/04/25 01:22:49;;;;;;;7.83;3.87;;;9.70;49.60;;;10.23;41.52;98031.31;4950744;29;20055;-63
2021/04/25 01:25:20;;;;;;;5.53;3.60;;;9.60;50.80;;;10.21;41.43;98035.94;4950337;29;20460;-63
2021/04/25 01:27:48;;;;;;;6.93;3.87;;;9.50;50.30;;;10.14;41.49;98034.03;4950416;29;20357;-64
2021/04/25 01:30:25;;;;;;;6.90;3.40;;;9.50;50.40;;;10.06;41.88;98032.09;4951841;29;20051;-64
2021/04/25 01:32:53;;;;;;;6.17;3.63;;;9.30;51.60;;;10.00;41.79;98028.25;4949885;29;20113;-63
2021/04/25 01:35:24;;;;;;;7.57;3.70;;;9.30;51.50;;;9.99;41.79;98037.19;4949967;29;20063;-63
2021/04/25 01:37:54;;;;;;;5.50;3.40;;;9.30;51.10;;;9.98;41.76;98032.03;4948900;29;20361;-64
2021/04/25 05:40:44;;;;;;;10.53;5.70;;;6.90;63.50;;;7.68;50.31;98086.53;4941104;28;20073;-46
2021/04/25 05:43:11;;;;;;;9.37;5.50;;;7.10;60.90;;;7.73;50.10;98083.47;4948920;28;20045;-50
2021/04/25 05:45:39;;;;;;;12.87;5.57;;;7.20;61.50;;;7.69;49.95;98096.97;4951620;28;20276;-47
2021/04/25 05:48:07;;;;;;;10.30;4.77;;;7.10;61.40;;;7.75;49.73;98089.47;4951977;29;20051;-49
2021/04/25 05:50:34;;;;;;;8.60;5.53;;;7.20;61.20;;;7.67;50.40;98090.97;4952415;29;20039;-48
2021/04/25 05:53:03;;;;;;;9.60;5.03;;;7.20;61.30;;;7.77;50.71;98093.66;4949632;29;20051;-48
2021/04/25 05:55:30;;;;;;;8.23;5.93;;;7.20;60.90;;;7.61;51.55;98095.97;4947570;29;20055;-49
2021/04/25 05:57:57;;;;;;;7.73;4.93;;;7.20;61.80;;;7.73;50.24;98096.72;4950409;29;20073;-48
2021/04/25 06:00:30;;;;;;;8.43;4.93;;;7.20;61.90;;;7.78;50.99;98095.38;4950940;29;20359;-48
2021/04/25 06:02:57;;;;;;;10.33;5.53;;;7.30;60.90;;;7.88;50.86;98100.72;4950485;29;20047;-47
2021/04/25 06:05:27;;;;;;;7.23;4.50;;;7.40;60.50;;;7.98;49.77;98098.09;4949185;29;20422;-47
2021/04/25 06:07:54;;;;;;;12.30;5.50;;;7.60;60.00;;;8.04;50.01;98100.19;4948445;29;20055;-48
2021/04/25 06:10:22;;;;;;;13.23;6.33;;;7.70;60.80;;;8.08;49.85;98107.78;4948073;29;20366;-50
2021/04/25 06:12:51;;;;;;;7.57;5.23;;;7.60;60.50;;;8.07;50.08;98097.28;4951128;29;20566;-46
2021/04/25 06:15:22;;;;;;;6.93;5.00;;;7.60;60.70;;;8.10;50.57;98102.31;4949779;29;20051;-50
2021/04/25 06:17:51;;;;;;;9.87;6.10;;;7.60;59.80;;;8.07;50.18;98103.44;4939901;29;20063;-51
2021/04/25 06:20:20;;;;;;;8.83;5.93;;;7.60;60.70;;;8.12;49.94;98110.13;4948993;29;20073;-47
2021/04/25 06:22:48;;;;;;;7.87;5.57;;;7.60;60.10;;;8.17;49.84;98108.78;4950150;29;20063;-48
2021/04/25 06:25:17;;;;;;;8.87;5.93;;;7.70;60.00;;;8.22;49.80;98103.91;4948715;29;20051;-47
2021/04/25 06:27:44;;;;;;;9.47;6.33;;;7.80;59.60;;;8.27;50.67;98109.63;4949173;29;20057;-47
2021/04/25 06:30:14;;;;;;;12.37;7.13;;;7.90;60.90;;;8.32;50.40;98103.94;4949174;29;20267;-50
2021/04/25 06:32:42;;;;;;;9.10;5.97;;;7.90;60.40;;;8.37;50.36;98109.66;4948206;29;20065;-47
2021/04/25 06:35:13;;;;;;;10.43;6.13;;;8.00;59.50;;;8.46;50.24;98116.00;4946732;28;20232;-47
2021/04/25 06:37:42;;;;;;;12.27;6.63;;;8.20;59.00;;;8.53;50.15;98117.16;4948517;29;20059;-48
2021/04/25 06:40:11;;;;;;;10.80;6.37;;;8.30;58.50;;;8.62;49.87;98120.78;4947401;29;20356;-49
2021/04/25 06:42:40;;;;;;;11.23;7.10;;;8.40;58.20;;;8.70;49.66;98122.75;4947584;29;20059;-49
2021/04/25 06:45:14;;;;;;;11.60;7.13;;;8.50;59.00;;;8.69;49.82;98126.41;4947655;29;20051;-52
2021/04/25 06:47:41;;;;;;;11.32;6.38;;;8.40;58.80;;;8.72;49.30;98126.09;4947502;29;20058;-49
2021/04/25 06:50:12;;;;;;;11.80;7.43;;;8.30;58.40;;;8.77;49.35;98122.06;4948053;29;20406;-48
2021/04/25 06:52:41;;;;;;;12.03;6.80;;;8.50;58.30;;;8.84;49.30;98127.63;4947109;29;20055;-50
2021/04/25 06:55:14;;;;;;;10.73;6.70;;;8.50;58.60;;;8.88;49.63;98121.09;4946733;28;20244;-48
2021/04/25 06:57:43;;;;;;;14.87;7.93;;;8.60;58.20;;;8.96;49.56;98125.72;4947361;29;20057;-50
2021/04/25 07:00:13;;;;;;;8.77;6.37;;;8.70;57.90;;;8.99;48.89;98128.06;4957051;28;20565;-50
2021/04/25 07:02:41;;;;;;;13.40;7.57;;;8.80;57.60;;;9.03;49.45;98121.50;4948104;29;20086;-50
2021/04/25 07:05:09;;;;;;;12.90;7.10;;;8.90;57.50;;;9.09;49.21;98128.06;4947413;29;20055;-48
2021/04/25 07:07:37;;;;;;;13.13;7.17;;;9.00;57.30;;;9.16;48.99;98130.03;4960618;28;20058;-50
2021/04/25 07:10:06;;;;;;;12.57;7.47;;;9.00;57.30;;;9.16;49.36;98122.06;4948076;29;20052;-49
2021/04/25 07:12:34;;;;;;;12.70;6.90;;;8.90;58.30;;;9.21;49.12;98130.47;4947030;29;20055;-48
2021/04/25 07:15:01;;;;;;;11.83;7.03;;;9.00;57.70;;;9.27;49.11;98129.06;4946759;29;20256;-49
2021/04/25 07:17:29;;;;;;;12.13;6.90;;;9.00;57.80;;;9.27;48.86;98127.25;4943330;29;20054;-49
2021/04/25 07:19:56;;;;;;;9.47;6.47;;;9.00;57.80;;;9.29;49.02;98128.94;4947623;29;20047;-48
2021/04/25 07:22:23;;;;;;;11.20;7.87;;;9.00;58.20;;;9.26;49.44;98136.19;4949076;29;20240;-46
2021/04/25 07:24:51;;;;;;;11.47;7.87;;;8.90;58.20;;;9.08;49.52;98135.22;4946557;29;20063;-48
2021/04/25 07:27:19;;;;;;;11.53;7.00;;;8.70;59.30;;;9.11;49.66;98129.63;4947568;29;20047;-49
2021/04/25 07:29:48;;;;;;;13.17;7.53;;;8.80;58.80;;;9.18;49.43;98129.91;4947516;29;20349;-48
2021/04/25 07:32:16;;;;;;;11.63;8.27;;;8.90;58.70;;;9.22;50.03;98125.97;4948222;29;20055;-49
2021/04/25 07:34:45;;;;;;;12.17;7.80;;;9.00;58.40;;;9.23;49.60;98120.53;4946364;29;20341;-48
2021/04/25 07:37:14;;;;;;;10.57;7.47;;;9.00;58.60;;;9.18;49.91;98122.75;4946175;29;20318;-49
2021/04/25 07:39:42;;;;;;;10.30;7.20;;;8.80;58.70;;;9.20;49.81;98125.28;4946079;29;20058;-47
2021/04/25 07:42:11;;;;;;;13.03;8.30;;;8.80;58.80;;;9.21;50.44;98117.19;4947698;29;20050;-47
2021/04/25 07:44:41;;;;;;;12.20;7.23;;;8.90;59.40;;;9.26;50.26;98117.56;4947610;29;20051;-48
2021/04/25 07:47:08;;;;;;;9.97;7.43;;;9.00;59.00;;;9.35;49.91;98125.69;4945806;29;20059;-49
2021/04/25 07:49:37;;;;;;;13.30;8.00;;;9.10;58.60;;;9.44;49.82;98122.16;4944334;29;20059;-49
2021/04/25 07:52:05;;;;;;;12.63;7.33;;;9.30;58.20;;;9.50;50.03;98124.28;4945347;29;20086;-48
2021/04/25 07:54:33;;;;;;;12.17;8.30;;;9.40;58.10;;;9.61;49.51;98121.44;4929483;29;20055;-47
2021/04/25 07:57:01;;;;;;;11.03;7.67;;;9.50;58.00;;;9.66;49.61;98123.69;4928185;29;20047;-48
2021/04/25 07:59:28;;;;;;;12.07;8.43;;;9.60;57.80;;;9.71;49.06;98121.41;4942606;29;20058;-51
2021/04/25 08:01:55;;;;;;;13.07;9.13;;;9.60;57.40;;;9.69;49.18;98119.88;4926057;29;20573;-48
2021/04/25 08:04:23;;;;;;;14.57;8.70;;;9.50;57.30;;;9.69;49.11;98123.38;4952695;28;20043;-50
2021/04/25 08:06:50;;;;;;;10.93;8.37;;;9.50;57.80;;;9.73;49.12;98121.28;4954494;28;20063;-48
2021/04/25 08:09:18;;;;;;;12.33;7.80;;;9.40;57.60;;;9.80;49.13;98119.72;4953051;28;20047;-51
2021/04/25 08:11:45;;;;;;;13.13;8.50;;;9.60;57.50;;;9.79;49.18;98126.88;4955887;28;20058;-49
2021/04/25 08:14:13;;;;;;;14.07;8.73;;;9.60;57.40;;;9.84;49.15;98124.59;4953359;28;20566;-48
2021/04/25 08:16:40;;;;;;;15.80;9.67;;;9.70;57.30;;;9.96;48.85;98127.91;4963889;28;20058;-49
2021/04/25 08:19:08;;;;;;;12.77;8.80;;;9.80;57.00;;;10.05;48.60;98127.03;4947962;28;20057;-50
2021/04/25 08:21:35;;;;;;;16.07;8.70;;;10.00;56.50;;;10.14;48.56;98122.69;4932908;29;20055;-49
2021/04/25 08:24:07;;;;;;;13.07;9.33;;;10.10;56.40;;;10.24;48.63;98125.31;4945617;29;20236;-46
2021/04/25 08:26:34;;;;;;;15.53;10.17;;;10.20;56.30;;;10.31;48.35;98129.06;4945262;29;20062;-50
2021/04/25 08:29:02;;;;;;;13.10;9.20;;;10.30;55.90;;;10.34;48.23;98125.28;4929443;29;20063;-48
2021/04/25 08:31:30;;;;;;;13.90;8.83;;;10.30;55.80;;;10.37;48.19;98127.63;4947113;29;20051;-47
2021/04/25 08:33:57;;;;;;;14.23;9.23;;;10.40;55.70;;;10.42;47.88;98130.69;4945925;29;20415;-48
2021/04/25 08:36:25;;;;;;;14.73;9.40;;;10.40;55.60;;;10.42;47.85;98128.03;4946754;29;20055;-48
2021/04/25 08:38:52;;;;;;;14.43;8.93;;;10.40;55.40;;;10.39;47.61;98131.84;4947494;29;20276;-47
2021/04/25 08:41:21;;;;;;;13.90;9.07;;;10.30;55.50;;;10.41;47.94;98129.88;4929339;29;20510;-50
2021/04/25 08:43:49;;;;;;;14.90;9.47;;;10.30;55.80;;;10.50;47.94;98130.78;4948302;29;20069;-52
2021/04/25 08:46:24;;;;;;;17.30;12.23;;;10.40;55.70;;;10.61;47.50;98130.59;4946949;29;20487;-49
2021/04/25 08:48:55;;;;;;;12.30;9.67;;;10.60;55.00;;;10.68;47.27;98133.47;4938610;29;20057;-49
2021/04/25 08:51:24;;;;;;;12.10;8.23;;;10.70;54.60;;;10.76;47.19;98138.91;4946457;29;20065;-48
2021/04/25 08:53:52;;;;;;;12.30;9.07;;;10.80;54.40;;;10.86;46.88;98137.97;4946149;28;20074;-49
2021/04/25 08:56:20;;;;;;;13.30;9.40;;;10.90;54.20;;;10.91;46.77;98131.22;4947088;29;20047;-47
2021/04/25 08:58:50;;;;;;;12.77;9.33;;;10.90;53.90;;;10.97;46.69;98127.97;4943098;29;20059;-49
2021/04/25 09:01:19;;;;;;;16.60;10.20;;;11.00;53.80;;;11.01;46.74;98129.34;4955945;29;20062;-48
2021/04/25 09:03:47;;;;;;;14.30;9.05;;;11.10;53.90;;;11.07;46.54;98124.38;4959313;29;20065;-50
2021/04/25 09:06:15;;;;;;;14.48;9.45;;;11.10;53.50;;;11.12;46.44;98130.09;4961330;29;20059;-50
2021/04/25 09:08:53;;;;;;;13.30;9.48;;;11.10;53.30;;;11.10;45.73;98129.41;4956226;29;20051;-51
2021/04/25 09:11:39;;;;;;;12.95;8.15;;;11.20;52.50;;;10.94;45.39;98130.09;4953020;29;20051;-51
2021/04/25 09:14:18;;;;;;;11.85;8.70;;;11.00;52.80;;;10.94;45.98;98132.75;4945349;29;20069;-51
2021/04/25 09:17:06;;;;;;;12.33;7.87;;;10.90;52.90;;;10.94;45.33;98125.59;4945148;29;20051;-50
2021/04/25 09:19:57;;;;;;;12.15;8.38;;;10.90;52.10;;;11.03;45.86;98124.69;4948897;29;20051;-50
2021/04/25 09:22:51;;;;;;;10.60;7.67;;;11.00;52.90;;;11.04;45.28;98123.69;4950163;29;20474;-51
2021/04/25 09:25:19;;;;;;;13.18;7.43;;;11.10;52.40;;;10.93;44.86;98115.09;4949643;29;20101;-50
2021/04/25 09:27:49;;;;;;;9.67;5.97;;;11.00;51.30;;;10.92;44.84;98119.59;4950734;29;20089;-52
2021/04/25 09:30:25;;;;;;;9.57;6.53;;;11.00;51.00;;;10.92;43.92;98119.59;4949677;29;20085;-52
2021/04/25 09:33:05;;;;;;;10.33;7.40;;;11.00;50.00;;;11.00;43.84;98113.50;4950637;29;20471;-53
2021/04/25 09:35:33;;;;;;;9.50;6.57;;;11.00;50.10;;;11.03;44.50;98106.03;4950811;29;20043;-51
2021/04/25 09:38:11;;;;;;;10.50;6.90;;;11.10;51.30;;;10.97;44.17;98119.13;4949768;29;20073;-50
2021/04/25 09:40:45;;;;;;;12.10;7.67;;;11.10;50.10;;;11.08;44.28;98121.56;4949543;29;20047;-51
2021/04/25 09:43:14;;;;;;;11.30;6.78;;;11.20;49.90;;;11.14;43.94;98110.28;4949428;29;20055;-49
2021/04/25 09:45:47;;;;;;;10.80;6.53;;;11.30;49.80;;;11.26;43.83;98113.56;4933611;29;20055;-52
2021/04/25 09:48:34;;;;;;;9.95;6.72;;;11.30;49.80;;;11.34;43.73;98113.63;4950599;29;20051;-52
2021/04/25 09:51:26;;;;;;;12.43;6.70;;;11.40;50.00;;;11.42;43.05;98113.69;4949873;29;20051;-51
2021/04/25 09:53:54;;;;;;;8.73;6.47;;;11.60;49.90;;;11.50;43.69;98106.75;4950130;29;20039;-49
2021/04/25 09:56:34;;;;;;;11.17;5.63;;;11.60;49.30;;;11.50;42.88;98104.09;4949453;29;20058;-53
2021/04/25 09:59:07;;;;;;;12.07;8.57;;;11.60;48.40;;;11.45;41.84;98109.88;4949398;29;20162;-50
2021/04/25 10:01:42;;;;;;;15.48;11.02;;;11.60;47.40;;;11.58;42.61;98098.81;4948877;29;20055;-51
2021/04/25 10:04:38;;;;;;;11.15;8.18;;;11.70;48.30;;;11.61;42.63;98093.16;4949225;29;20051;-53
2021/04/25 10:07:10;;;;;;;9.87;6.20;;;11.80;48.30;;;11.58;43.04;98091.63;4947403;29;20355;-51
2021/04/25 10:09:37;;;;;;;8.13;6.43;;;11.80;48.50;;;11.65;42.23;98099.88;4950091;29;20063;-53
2021/04/25 10:12:05;;;;;;;11.00;6.43;;;11.80;47.40;;;11.68;42.79;98098.69;4950720;29;20404;-53
2021/04/25 10:14:34;;;;;;;8.07;6.65;;;11.90;48.40;;;11.72;41.93;98097.38;4948166;29;20344;-48
2021/04/25 10:17:03;;;;;;;11.57;6.13;;;11.90;47.50;;;11.81;42.33;98093.78;4949981;29;20058;-49
2021/04/25 10:19:32;;;;;;;12.18;7.13;;;12.00;48.00;;;11.93;42.25;98095.22;4948473;29;20179;-50
2021/04/25 10:21:59;;;;;;;9.10;5.28;;;12.10;48.20;;;11.99;41.00;98094.56;4947827;29;20035;-53
2021/04/25 10:24:26;;;;;;;9.50;6.03;;;12.20;46.10;;;12.11;40.14;98091.63;4949726;29;20062;-50
2021/04/25 10:27:06;;;;;;;7.47;5.18;;;12.20;45.70;;;12.18;38.87;98088.16;4948895;29;20063;-49
2021/04/25 10:29:49;;;;;;;14.15;7.38;;;12.40;44.40;;;12.23;39.68;98093.00;4947463;28;20077;-53
2021/04/25 10:32:21;;;;;;;39.03;25.43;;;12.40;45.50;;;12.32;40.83;98097.38;4946999;29;20387;-54
2021/04/25 10:35:09;;;;;;;12.57;8.80;;;12.50;46.00;;;12.38;39.75;98094.06;4949205;29;20112;-50
2021/04/25 10:37:41;;;;;;;8.70;6.55;;;12.60;45.10;;;12.46;40.01;98087.91;4948104;29;20051;-51
2021/04/25 10:40:47;;;;;;;9.35;4.95;;;12.60;45.20;;;12.51;39.13;98092.78;4948407;29;20466;-48
2021/04/25 10:43:15;;;;;;;11.93;8.20;;;12.70;44.00;;;12.58;39.57;98086.63;4947032;29;20065;-53
2021/04/25 10:46:00;;;;;;;14.40;9.30;;;12.70;44.60;;;12.63;38.43;98086.13;4947710;29;20055;-48
2021/04/25 10:48:34;;;;;;;7.57;4.97;;;12.80;43.00;;;12.59;37.46;98080.28;4947369;29;20249;-52
2021/04/25 10:51:21;;;;;;;9.48;4.78;;;12.80;42.60;;;12.55;37.91;98089.63;4948645;29;20051;-52
2021/04/25 10:54:03;;;;;;;6.03;4.07;;;12.70;42.70;;;12.55;36.94;98084.28;4949562;29;20277;-51
2021/04/25 10:56:32;;;;;;;6.70;4.05;;;12.70;40.70;;;12.48;36.75;98085.91;4946963;29;20053;-52
2021/04/25 10:59:23;;;;;;;5.60;4.43;;;12.70;40.40;;;12.51;35.94;98074.09;4948099;29;20241;-50
2021/04/25 11:01:51;;;;;;;6.15;4.32;;;12.70;39.80;;;12.60;37.04;98075.75;4949472;29;20055;-49
2021/04/25 11:05:04;;;;;;;7.22;4.25;;;12.70;40.90;;;12.60;36.27;98071.28;4948289;29;20058;-50
2021/04/25 11:07:40;;;;;;;5.63;4.10;;;12.80;38.90;;;12.63;35.49;98072.78;4946808;29;20067;-50
2021/04/25 11:10:08;;;;;;;10.30;5.05;;;12.80;39.30;;;12.56;36.24;98075.28;4947041;29;20063;-50
2021/04/25 11:12:36;;;;;;;6.88;4.97;;;12.80;39.80;;;12.68;35.58;98066.94;4931622;29;20059;-48
2021/04/25 11:15:05;;;;;;;8.38;4.80;;;12.90;40.80;;;12.74;34.49;98074.31;4946230;29;20065;-52
2021/04/25 11:17:33;;;;;;;6.95;4.28;;;13.00;37.40;;;12.76;35.30;98072.31;4947541;29;20127;-52
2021/04/25 11:20:32;;;;;;;7.65;4.22;;;13.00;39.30;;;12.91;35.91;98067.13;4950155;28;20245;-50
2021/04/25 11:23:24;;;;;;;5.68;3.85;;;13.10;38.60;;;13.00;35.75;98063.47;4947352;29;20065;-52
2021/04/25 11:25:51;;;;;;;6.63;3.97;;;13.20;39.90;;;13.08;35.08;98065.31;4930422;29;20063;-49
2021/04/25 11:28:52;;;;;;;5.40;3.40;;;13.30;38.00;;;13.15;34.79;98061.81;4947178;29;20120;-51
2021/04/25 11:31:58;;;;;;;6.53;3.80;;;13.40;38.00;;;13.25;33.64;98064.31;4949567;29;20057;-48
2021/04/25 11:34:27;;;;;;;8.48;4.38;;;13.50;36.60;;;13.36;34.97;98061.31;4853832;29;20068;-52
2021/04/25 11:37:18;;;;;;;5.30;3.70;;;13.60;36.60;;;13.41;33.65;98063.47;4934956;29;20257;-50
2021/04/25 11:40:03;;;;;;;5.78;4.63;;;13.60;37.30;;;13.48;33.34;98059.13;4947758;29;20047;-51
2021/04/25 11:42:46;;;;;;;5.45;2.90;;;13.80;35.00;;;13.53;32.29;98061.28;4946692;29;20353;-50
2021/04/25 11:45:29;;;;;;;7.25;3.90;;;13.80;34.20;;;13.61;31.96;98058.63;4946806;29;20067;-51
2021/04/25 11:48:02;;;;;;;4.88;3.40;;;13.90;36.40;;;13.64;30.86;98058.25;4946340;29;20066;-53
2021/04/25 11:50:40;;;;;;;4.50;3.20;;;13.90;34.00;;;13.73;31.80;98056.41;4930092;29;20055;-50
2021/04/25 11:53:09;;;;;;;4.90;3.17;;;14.00;34.90;;;13.79;31.31;98059.22;4948621;29;20390;-52
2021/04/25 11:55:39;;;;;;;5.13;3.58;;;14.10;33.60;;;13.88;31.72;98060.06;4945425;29;20055;-53
2021/04/25 11:58:08;;;;;;;8.43;3.47;;;14.20;35.00;;;13.92;31.56;98060.53;4946169;29;20039;-51
2021/04/25 12:00:37;;;;;;;6.22;3.75;;;14.20;34.80;;;13.99;31.53;98065.00;4947264;29;20061;-51
2021/04/25 12:03:06;;;;;;;7.03;4.18;;;14.20;34.90;;;14.02;31.61;98065.72;4945596;29;20058;-53
2021/04/25 12:05:38;;;;;;;7.15;3.63;;;14.30;34.80;;;14.02;31.15;98066.53;4946637;29;20047;-52
2021/04/25 12:08:13;;;;;;;7.13;3.97;;;14.30;34.10;;;14.02;30.74;98063.84;4947506;29;20063;-51
2021/04/25 12:10:50;;;;;;;6.10;3.35;;;14.30;33.10;;;14.08;32.81;98060.47;4947539;29;20410;-54
2021/04/25 12:13:22;;;;;;;5.85;3.60;;;14.40;36.60;;;14.16;32.08;98063.13;4946909;29;20376;-52
2021/04/25 12:15:57;;;;;;;6.45;3.63;;;14.50;35.30;;;14.21;32.55;98054.59;4946527;29;20051;-53
2021/04/25 12:18:29;;;;;;;4.28;2.95;;;14.50;36.00;;;14.28;31.99;98054.69;4947021;29;20050;-54
2021/04/25 12:21:04;;;;;;;7.97;3.60;;;14.60;35.30;;;14.38;31.68;98052.63;4947440;29;20047;-54
2021/04/25 12:23:43;;;;;;;8.35;4.65;;;14.70;35.10;;;14.48;30.46;98055.94;4945784;29;20062;-52
2021/04/25 12:26:14;;;;;;;5.65;3.35;;;14.80;34.80;;;14.51;30.70;98050.22;4946666;29;20053;-51
2021/04/25 12:28:45;;;;;;;5.47;3.42;;;14.80;33.30;;;14.59;30.99;98052.06;4950471;28;20055;-47
2021/04/25 12:31:20;;;;;;;4.68;3.47;;;15.00;33.70;;;14.67;30.84;98040.44;4964382;28;20070;-48
2021/04/25 12:33:57;;;;;;;7.50;4.55;;;15.20;34.00;;;14.76;30.33;98042.06;4964902;28;20058;-51
2021/04/25 12:36:29;;;;;;;5.72;3.63;;;15.20;32.50;;;14.89;31.40;98049.53;4965839;28;20057;-52
2021/04/25 12:39:05;;;;;;;5.78;3.20;;;15.40;34.40;;;14.95;30.32;98043.44;4965486;28;20066;-53
2021/04/25 12:41:52;;;;;;;5.80;3.80;;;15.60;32.20;;;15.04;30.28;98046.88;4964509;28;20352;-49
2021/04/25 12:44:38;;;;;;;6.25;3.53;;;15.60;32.50;;;14.99;28.98;98043.94;4964389;28;20361;-48
2021/04/25 12:47:09;;;;;;;4.70;3.50;;;15.60;31.40;;;15.03;29.30;98048.75;4964336;28;20225;-51
2021/04/25 12:49:51;;;;;;;5.88;3.28;;;15.50;31.80;;;15.11;29.23;98050.53;4964882;28;20218;-52
2021/04/25 12:52:34;;;;;;;4.78;3.50;;;15.60;31.50;;;15.14;29.38;98042.09;4964075;28;20054;-50
2021/04/25 12:55:04;;;;;;;6.57;4.35;;;15.70;31.80;;;15.14;28.98;98034.06;4966546;28;20046;-52
2021/04/25 12:57:33;;;;;;;5.72;3.28;;;15.50;32.80;;;15.22;29.88;98039.38;4956590;28;20061;-49
2021/04/25 13:00:21;;;;;;;5.70;3.50;;;15.60;33.10;;;15.29;29.77;98037.59;4946167;28;20345;-50
2021/04/25 13:02:49;;;;;;;5.68;3.17;;;15.80;32.20;;;15.35;28.92;98044.97;4945650;29;20043;-50
2021/04/25 13:05:18;;;;;;;6.80;3.90;;;16.00;31.00;;;15.43;28.71;98044.03;4944133;29;20384;-50
2021/04/25 13:07:48;;;;;;;4.45;2.88;;;16.00;30.90;;;15.51;28.92;98027.84;4946089;29;20047;-49
2021/04/25 13:10:32;;;;;;;5.88;3.65;;;16.10;31.80;;;15.66;28.96;98022.47;4944877;29;20051;-52
2021/04/25 13:13:13;;;;;;;5.53;2.90;;;16.20;31.40;;;15.70;27.83;98021.13;4940029;29;20053;-48
2021/04/25 13:15:42;;;;;;;6.20;3.20;;;16.40;30.30;;;15.72;28.41;98023.59;4945574;28;20051;-50
2021/04/25 13:18:15;;;;;;;7.80;2.97;;;16.30;31.00;;;15.83;28.57;98023.19;4946166;28;20043;-52
2021/04/25 13:20:52;;;;;;;6.20;3.85;;;16.40;31.00;;;15.89;27.40;98016.22;4946574;28;20050;-47
2021/04/25 13:23:35;;;;;;;3.80;2.90;;;16.50;30.10;;;15.95;28.03;98015.47;4945529;29;20081;-52
2021/04/25 13:26:07;;;;;;;8.05;3.13;;;16.40;30.90;;;16.05;28.19;98018.75;4945822;29;20059;-49
2021/04/25 13:28:36;;;;;;;4.30;3.03;;;16.60;30.70;;;16.22;27.85;98010.44;4913874;29;20055;-51
2021/04/25 13:31:09;;;;;;;5.00;3.40;;;16.80;30.20;;;16.36;27.80;98014.94;4945771;29;20062;-50
2021/04/25 13:33:37;;;;;;;4.18;2.80;;;17.00;30.00;;;16.48;26.97;98013.44;4944365;29;20062;-51
2021/04/25 13:36:07;;;;;;;5.40;2.70;;;17.20;29.40;;;16.54;25.73;98017.25;4943835;29;20051;-52
2021/04/25 13:38:36;;;;;;;6.25;2.67;;;17.20;27.60;;;16.50;25.64;98006.03;4943621;29;20051;-51
2021/04/25 13:41:04;;;;;;;4.28;2.90;;;17.10;28.30;;;16.67;26.02;98016.53;4943463;29;20058;-52
2021/04/25 13:43:33;;;;;;;3.63;2.30;;;17.30;28.80;;;16.85;26.00;98000.84;4943531;29;20055;-52
2021/04/25 13:46:02;;;;;;;3.70;2.90;;;17.50;28.80;;;17.03;26.46;97996.84;4946096;29;20387;-50
2021/04/25 13:48:30;;;;;;;5.20;3.58;;;17.80;29.00;;;17.20;26.67;97990.16;4943681;29;20268;-50
2021/04/25 13:50:59;;;;;;;4.38;3.05;;;18.00;29.40;;;17.40;26.49;97994.84;4944735;29;20545;-52
2021/04/25 13:53:28;;;;;;;5.88;3.08;;;18.10;29.20;;;17.56;26.82;97991.03;4944440;29;20055;-54
2021/04/25 13:55:58;;;;;;;4.35;3.15;;;18.30;29.40;;;17.68;26.79;97986.75;4945491;29;20055;-51
2021/04/25 13:58:27;;;;;;;4.32;2.92;;;18.50;29.50;;;17.79;25.86;97977.28;4944977;29;20066;-50
2021/04/25 14:01:00;;;;;;;6.47;3.75;;;18.60;28.60;;;17.85;25.79;97979.22;4943042;29;20047;-51
2021/04/25 14:03:29;;;;;;;4.18;3.10;;;18.50;28.60;;;17.94;25.86;97978.03;4945265;28;20401;-54
2021/04/25 14:05:58;;;;;;;5.00;2.83;;;18.60;28.90;;;18.02;25.82;97980.53;4947012;29;20055;-50
2021/04/25 14:08:26;;;;;;;7.22;4.07;;;18.70;28.90;;;18.14;25.63;97983.47;4930679;29;20054;-52
2021/04/25 14:10:55;;;;;;;9.25;3.78;;;18.80;28.50;;;18.21;25.54;97981.66;4949254;29;20063;-52
2021/04/25 14:13:24;;;;;;;3.58;3.10;;;18.80;28.50;;;18.28;25.33;97977.13;4947773;29;20063;-53
2021/04/25 14:15:52;;;;;;;4.03;2.53;;;18.90;28.20;;;18.37;25.14;97982.31;4948350;29;20043;-50
2021/04/25 14:18:21;;;;;;;4.93;2.63;;;19.00;28.20;;;18.41;24.47;97987.09;4948293;29;20051;-53
2021/04/25 14:20:50;;;;;;;4.55;2.97;;;19.00;27.70;;;18.48;24.51;97982.56;4940863;29;20059;-54
2021/04/25 14:23:19;;;;;;;5.45;2.85;;;19.10;27.70;;;18.55;24.30;97981.75;4948628;29;20077;-54
2021/04/25 14:25:48;;;;;;;3.85;2.80;;;19.20;27.30;;;18.56;23.66;97976.16;4949071;29;20283;-54
2021/04/25 14:28:16;;;;;;;4.18;2.72;;;19.20;26.90;;;18.64;23.73;97980.53;4949223;29;20352;-54
2021/04/25 14:30:45;;;;;;;6.13;4.03;;;19.30;27.00;;;18.73;23.69;97975.75;4948661;29;20367;-55
2021/04/25 14:33:14;;;;;;;4.13;3.00;;;19.30;27.10;;;18.80;23.50;97969.38;4947238;29;20065;-54
2021/04/25 14:36:06;;;;;;;4.25;3.05;;;19.40;26.70;;;18.84;23.94;97967.94;4948481;29;20065;-55
2021/04/25 14:38:35;;;;;;;3.53;3.08;;;19.50;27.10;;;18.94;24.05;97966.69;4949198;29;20339;-55
2021/04/25 14:41:05;;;;;;;6.53;3.10;;;19.60;27.30;;;18.99;23.63;97962.31;4948576;29;20055;-49